CheckWX is a tool to help pilots better visualize weather data.  It is not intended as a substitute for an official pre-flight weather briefing.

20:29:25 UTC

ENSO METAR
Stord Airport
Leirvik, Norway
Current

1 hour ago

ENSO 221920Z 18016KT 140V210 6000 RA FEW002 BKN005 07/06 Q1013
Observed
Mar-22 @ 19:20 UTC
Wind
  • 180° at 16 KTS
Visibility
6,003 meters
Flight Rules
IFR
Conditions
Rain
Cloud Levels
  • Few at 200' AGL
  • Broken at 500' AGL
Temperature
C / 45°F
Dewpoint
C / 43°F
Humidity
93%
Altimeter
29.91" Hg
Pressure
1012.92 hPa
Previous

2 hours ago

ENSO 221850Z 18015KT 140V200 4200 RADZ BR FEW002 BKN004 07/06 Q1013
Observed
Mar-22 @ 18:50 UTC
Wind
  • 180° at 15 KTS
Visibility
4,200 meters
Flight Rules
LIFR
Conditions
Rain, Drizzle, Mist
Cloud Levels
  • Few at 200' AGL
  • Broken at 400' AGL
Temperature
C / 45°F
Dewpoint
C / 43°F
Humidity
93%
Altimeter
29.91" Hg
Pressure
1012.92 hPa
Previous

2 hours ago

ENSO 221820Z 18014G25KT 140V230 6000 RADZ FEW003 BKN005 07/06 Q1014
Observed
Mar-22 @ 18:20 UTC
Wind
  • 180° at 14 KTS
  • Gusting to 25 KTS
Visibility
6,003 meters
Flight Rules
IFR
Conditions
Rain, Drizzle
Cloud Levels
  • Few at 300' AGL
  • Broken at 500' AGL
Temperature
C / 45°F
Dewpoint
C / 43°F
Humidity
93%
Altimeter
29.94" Hg
Pressure
1013.92 hPa